createdAt,value
2022-10-29T00:09:39.092Z,13.71
2022-10-29T00:31:25.984Z,13.76
2022-10-29T00:53:11.969Z,13.56
2022-10-29T01:15:09.149Z,13.64
2022-10-29T01:36:59.482Z,13.89
2022-10-29T01:58:47.834Z,14.18
2022-10-29T02:20:33.722Z,14.20
2022-10-29T02:42:19.431Z,14.04
2022-10-29T03:04:05.326Z,13.96
2022-10-29T03:25:56.052Z,13.93
2022-10-29T03:47:42.474Z,14.14
2022-10-29T04:09:28.375Z,14.60
2022-10-29T04:31:15.200Z,15.14
2022-10-29T04:56:06.920Z,14.77
2022-10-29T05:17:52.850Z,14.53
2022-10-29T05:39:38.796Z,14.24
2022-10-29T06:01:24.552Z,14.53
2022-10-29T06:23:10.532Z,14.99
2022-10-29T06:44:56.202Z,15.54
2022-10-29T07:06:41.919Z,15.85
2022-10-29T07:28:27.740Z,16.56
2022-10-29T07:50:13.958Z,17.76
2022-10-29T08:11:59.771Z,18.47
2022-10-29T08:45:05.435Z,20.02
2022-10-29T09:07:02.804Z,21.16
2022-10-29T09:29:15.076Z,24.65
2022-10-29T09:51:10.712Z,30.12
2022-10-29T10:13:01.360Z,28.36
2022-10-29T10:34:44.322Z,25.44
2022-10-29T10:56:27.400Z,23.88
2022-10-29T11:18:18.361Z,22.82
2022-10-29T11:40:05.415Z,22.50
2022-10-29T12:01:57.618Z,22.63
2022-10-29T12:23:54.362Z,22.53
2022-10-29T12:46:19.079Z,22.28
2022-10-29T13:08:26.465Z,22.19
2022-10-29T13:30:21.182Z,21.98
2022-10-29T13:52:11.386Z,22.08
2022-10-29T14:13:58.746Z,21.88
2022-10-29T14:35:41.986Z,21.67
2022-10-29T14:57:27.920Z,21.35
2022-10-29T15:19:15.759Z,20.99
2022-10-29T15:41:30.748Z,20.46
2022-10-29T16:03:16.562Z,19.66
2022-10-29T16:24:59.581Z,18.95
2022-10-29T16:46:42.735Z,18.49
2022-10-29T17:26:03.566Z,18.44
2022-10-29T17:47:49.615Z,18.48
2022-10-29T18:09:35.501Z,18.44
2022-10-29T18:31:21.778Z,18.44
2022-10-29T18:53:07.614Z,18.54
2022-10-29T19:14:53.648Z,18.46
2022-10-29T19:36:40.731Z,18.38
2022-10-29T19:58:28.650Z,18.07
2022-10-29T20:20:17.304Z,17.24
2022-10-29T20:42:03.416Z,16.98
2022-10-29T21:03:51.471Z,16.82
2022-10-29T21:25:37.275Z,16.56
2022-10-29T21:47:22.962Z,16.52
2022-10-29T22:09:10.059Z,16.39
2022-10-29T22:31:01.914Z,16.15
2022-10-29T22:52:47.784Z,15.96
2022-10-29T23:14:33.460Z,15.84
2022-10-29T23:36:20.501Z,15.63
2022-10-29T23:58:06.493Z,15.56
